Christian Reinauer — WDA6472 — position and weather

sailwx.info

Track history (hours):
 
Tides and Currents Weather Stations Pressure Air Temp Water Temp Dewpoint Dewpoint Depression Visibility Wind Speed Wind Dir Waves Ship Positions

Christian Reinauer

Owner: REINAUER TRANSPORTATION CO LLC, STATEN ISLAND, NY. More information available from US FCC via Universal Licensing System and Coast Guard Vessel Documentation Center.

Last reported at 2016-Dec-03 18:22 UTC. Time now 2016-Dec-06 12:11 UTC.
Position N 27°03' W 079°59'.

Length 170 m; draft 8 m.

Type: Tanker. MMSI: 366832740.

Date/timePositionNaut miles runAvg speedWind from/ knotsBaromVisibWave heightAir tempDewpointWater temp
2016-Dec-03 18:22N 27°03' W 079°59'1113.4
2016-Dec-03 17:33N 26°52' W 079°58'2813.8
2016-Dec-03 15:33N 26°24' W 079°60'1413.8
2016-Dec-03 14:33N 26°11' W 080°02'7 7.3
2016-Dec-03 13:33N 26°06' W 080°07'0 0.0
2016-Dec-03 12:33N 26°06' W 080°07'0 0.0
2016-Dec-03 11:33N 26°06' W 080°07'0 0.0
2016-Dec-03 10:33N 26°06' W 080°07'0 0.0
2016-Dec-03 09:33N 26°06' W 080°07'0 0.0
2016-Dec-03 08:33N 26°06' W 080°07'0 0.0
2016-Dec-03 07:33N 26°06' W 080°07'0 0.0
2016-Dec-03 06:33N 26°06' W 080°07'0 0.0
2016-Dec-03 05:33N 26°06' W 080°07'0 0.0
2016-Dec-03 04:33N 26°06' W 080°07'0 0.0
2016-Dec-03 03:33N 26°06' W 080°07'0 0.0
2016-Dec-03 02:33N 26°06' W 080°07'0 0.0
2016-Dec-03 01:33N 26°06' W 080°07'0 0.0
2016-Dec-03 00:33N 26°06' W 080°07'3 3.3
2016-Dec-02 23:33N 26°06' W 080°04'4 3.9
2016-Dec-02 22:33N 26°09' W 080°00'10 9.7
2016-Dec-02 21:33N 25°59' W 079°59'1414.0
2016-Dec-02 20:33N 25°45' W 080°01'1413.8
2016-Dec-02 19:33N 25°32' W 080°02'1613.8
2016-Dec-02 18:24N 25°16' W 080°05'  
2016-Nov-30 02:04N 29°55' W 090°08'4 7.0
2016-Nov-30 01:30N 29°56' W 090°13'4 0.1
2016-Nov-28 17:33N 29°58' W 090°17'0 0.1
2016-Nov-28 16:30N 29°58' W 090°17'0 0.0
2016-Nov-28 11:30N 29°58' W 090°17'0 0.0
2016-Nov-28 10:18N 29°58' W 090°17'  
2016-Nov-23 20:30N 29°58' W 090°17'5 5.3
2016-Nov-23 19:33N 29°56' W 090°12'7 6.3
2016-Nov-23 18:23N 29°57' W 090°03'  
Track history (hours):
 
Tides and Currents Weather Stations Pressure Air Temp Water Temp Dewpoint Dewpoint Depression Visibility Wind Speed Wind Dir Waves Ship Positions

Christian Reinauer

Owner: REINAUER TRANSPORTATION CO LLC, STATEN ISLAND, NY. More information available from US FCC via Universal Licensing System and Coast Guard Vessel Documentation Center.

Last reported at 2016-Dec-03 18:22 UTC. Time now 2016-Dec-06 12:11 UTC.
Position N 27°03' W 079°59'.

Length 170 m; draft 8 m.

Type: Tanker. MMSI: 366832740.

Date/timePositionNaut miles runAvg speedWind from/ knotsBaromVisibWave heightAir tempDewpointWater temp
2016-Dec-03 18:22N 27°03' W 079°59'1113.4
2016-Dec-03 17:33N 26°52' W 079°58'2813.8
2016-Dec-03 15:33N 26°24' W 079°60'1413.8
2016-Dec-03 14:33N 26°11' W 080°02'7 7.3
2016-Dec-03 13:33N 26°06' W 080°07'0 0.0
2016-Dec-03 12:33N 26°06' W 080°07'0 0.0
2016-Dec-03 11:33N 26°06' W 080°07'0 0.0
2016-Dec-03 10:33N 26°06' W 080°07'0 0.0
2016-Dec-03 09:33N 26°06' W 080°07'0 0.0
2016-Dec-03 08:33N 26°06' W 080°07'0 0.0
2016-Dec-03 07:33N 26°06' W 080°07'0 0.0
2016-Dec-03 06:33N 26°06' W 080°07'0 0.0
2016-Dec-03 05:33N 26°06' W 080°07'0 0.0
2016-Dec-03 04:33N 26°06' W 080°07'0 0.0
2016-Dec-03 03:33N 26°06' W 080°07'0 0.0
2016-Dec-03 02:33N 26°06' W 080°07'0 0.0
2016-Dec-03 01:33N 26°06' W 080°07'0 0.0
2016-Dec-03 00:33N 26°06' W 080°07'3 3.3
2016-Dec-02 23:33N 26°06' W 080°04'4 3.9
2016-Dec-02 22:33N 26°09' W 080°00'10 9.7
2016-Dec-02 21:33N 25°59' W 079°59'1414.0
2016-Dec-02 20:33N 25°45' W 080°01'1413.8
2016-Dec-02 19:33N 25°32' W 080°02'1613.8
2016-Dec-02 18:24N 25°16' W 080°05'  
2016-Nov-30 02:04N 29°55' W 090°08'4 7.0
2016-Nov-30 01:30N 29°56' W 090°13'4 0.1
2016-Nov-28 17:33N 29°58' W 090°17'0 0.1
2016-Nov-28 16:30N 29°58' W 090°17'0 0.0
2016-Nov-28 11:30N 29°58' W 090°17'0 0.0
2016-Nov-28 10:18N 29°58' W 090°17'  
2016-Nov-23 20:30N 29°58' W 090°17'5 5.3
2016-Nov-23 19:33N 29°56' W 090°12'7 6.3
2016-Nov-23 18:23N 29°57' W 090°03'  

Dump ship's entire track history